createdAt,value
2023-05-19T00:00:33.633Z,95181.00
2023-05-19T00:01:33.451Z,95181.00
2023-05-19T00:02:33.532Z,95179.00
2023-05-19T00:03:33.628Z,95179.00
2023-05-19T00:04:33.919Z,95177.00
2023-05-19T00:05:33.525Z,95175.00
2023-05-19T00:06:33.446Z,95175.00
2023-05-19T00:07:33.398Z,95173.00
2023-05-19T00:08:33.734Z,95173.00
2023-05-19T00:09:33.352Z,95173.00
2023-05-19T00:10:33.572Z,95173.00
2023-05-19T00:11:33.373Z,95171.00
2023-05-19T00:12:33.349Z,95169.00
2023-05-19T00:13:33.354Z,95169.00
2023-05-19T00:14:33.336Z,95173.00
2023-05-19T00:15:33.335Z,95169.00
2023-05-19T00:16:33.459Z,95171.00
2023-05-19T00:17:33.421Z,95175.00
2023-05-19T00:18:33.286Z,95171.00
2023-05-19T00:19:33.330Z,95173.00
2023-05-19T00:20:33.496Z,95173.00
2023-05-19T00:21:33.290Z,95173.00
2023-05-19T00:22:33.253Z,95175.00
2023-05-19T00:23:33.249Z,95173.00
2023-05-19T00:24:33.325Z,95175.00
2023-05-19T00:25:33.256Z,95177.00
2023-05-19T00:26:33.277Z,95177.00
2023-05-19T00:27:33.268Z,95177.00
2023-05-19T00:28:33.230Z,95177.00
2023-05-19T00:29:33.264Z,95175.00
2023-05-19T00:30:33.409Z,95175.00
2023-05-19T00:31:33.311Z,95177.00
2023-05-19T00:32:33.228Z,95177.00
2023-05-19T00:33:33.208Z,95179.00
2023-05-19T00:34:33.216Z,95177.00
2023-05-19T00:35:33.172Z,95177.00
2023-05-19T00:36:33.185Z,95173.00
2023-05-19T00:37:33.154Z,95177.00
2023-05-19T00:38:33.200Z,95177.00
2023-05-19T00:39:33.167Z,95175.00
2023-05-19T00:40:33.323Z,95177.00
2023-05-19T00:41:33.162Z,95173.00
2023-05-19T00:42:33.156Z,95175.00
2023-05-19T00:43:33.245Z,95175.00
2023-05-19T00:44:33.150Z,95171.00
2023-05-19T00:45:33.149Z,95175.00
2023-05-19T00:46:33.187Z,95171.00
2023-05-19T00:47:33.212Z,95171.00
2023-05-19T00:48:33.102Z,95169.00
2023-05-19T00:49:33.147Z,95167.00
2023-05-19T00:50:33.253Z,95171.00
2023-05-19T00:51:33.107Z,95169.00
2023-05-19T00:52:33.108Z,95171.00
2023-05-19T00:53:33.125Z,95169.00
2023-05-19T00:54:33.118Z,95171.00
2023-05-19T00:55:33.067Z,95167.00
2023-05-19T00:56:33.052Z,95169.00
2023-05-19T00:57:33.057Z,95165.00
2023-05-19T00:58:33.076Z,95162.00
2023-05-19T00:59:33.053Z,95162.00
2023-05-19T01:00:33.308Z,95163.00
2023-05-19T01:01:33.087Z,95162.00
2023-05-19T01:02:33.153Z,95165.00
2023-05-19T01:03:33.148Z,95165.00
2023-05-19T01:04:32.994Z,95167.00
2023-05-19T01:05:33.019Z,95165.00
2023-05-19T01:06:32.971Z,95165.00
2023-05-19T01:07:32.982Z,95165.00
2023-05-19T01:08:33.008Z,95165.00
2023-05-19T01:09:33.018Z,95163.00
2023-05-19T01:10:33.159Z,95163.00
2023-05-19T01:11:32.977Z,95163.00
2023-05-19T01:12:32.957Z,95163.00
2023-05-19T01:13:32.960Z,95163.00
2023-05-19T01:14:33.001Z,95163.00
2023-05-19T01:15:32.934Z,95165.00
2023-05-19T01:16:32.986Z,95163.00
2023-05-19T01:17:32.942Z,95165.00
2023-05-19T01:18:32.956Z,95165.00
2023-05-19T01:19:32.891Z,95165.00
2023-05-19T01:20:33.168Z,95165.00
2023-05-19T01:21:32.915Z,95163.00
2023-05-19T01:22:32.900Z,95162.00
2023-05-19T01:23:32.927Z,95162.00
2023-05-19T01:24:32.860Z,95163.00
2023-05-19T01:25:32.905Z,95162.00
2023-05-19T01:26:32.891Z,95160.00
2023-05-19T01:27:32.881Z,95162.00
2023-05-19T01:28:32.917Z,95165.00
2023-05-19T01:29:32.840Z,95163.00
2023-05-19T01:30:32.994Z,95163.00
2023-05-19T01:31:32.833Z,95163.00
2023-05-19T01:32:32.890Z,95165.00
2023-05-19T01:33:32.858Z,95163.00
2023-05-19T01:34:32.817Z,95165.00
2023-05-19T01:35:32.846Z,95165.00
2023-05-19T01:36:32.885Z,95163.00
2023-05-19T01:37:32.801Z,95163.00
2023-05-19T01:38:32.788Z,95163.00
2023-05-19T01:39:32.742Z,95160.00
2023-05-19T01:40:33.121Z,95160.00
2023-05-19T01:41:32.778Z,95160.00
2023-05-19T01:42:32.762Z,95160.00
2023-05-19T01:43:32.747Z,95158.00
2023-05-19T01:44:32.736Z,95158.00
2023-05-19T01:45:32.773Z,95162.00
2023-05-19T01:46:32.772Z,95162.00
2023-05-19T01:47:32.738Z,95162.00
2023-05-19T01:48:32.786Z,95163.00
2023-05-19T01:49:32.717Z,95163.00
2023-05-19T01:50:33.047Z,95162.00
2023-05-19T01:51:32.684Z,95163.00
2023-05-19T01:52:32.703Z,95162.00
2023-05-19T01:53:32.674Z,95162.00
2023-05-19T01:54:32.702Z,95162.00
2023-05-19T01:55:32.703Z,95160.00
2023-05-19T01:56:32.671Z,95160.00
2023-05-19T01:57:32.677Z,95162.00
2023-05-19T01:58:32.680Z,95160.00
2023-05-19T01:59:32.651Z,95163.00
2023-05-19T02:00:32.881Z,95160.00
2023-05-19T02:01:32.657Z,95162.00
2023-05-19T02:02:32.677Z,95163.00
2023-05-19T02:03:32.627Z,95163.00
2023-05-19T02:04:32.633Z,95162.00
2023-05-19T02:05:32.608Z,95162.00
2023-05-19T02:06:32.627Z,95163.00
2023-05-19T02:07:32.633Z,95163.00
2023-05-19T02:08:32.607Z,95165.00
2023-05-19T02:09:32.619Z,95167.00
2023-05-19T02:10:32.772Z,95165.00
2023-05-19T02:11:32.604Z,95167.00
2023-05-19T02:12:32.588Z,95167.00
2023-05-19T02:13:32.548Z,95167.00
2023-05-19T02:14:32.569Z,95167.00
2023-05-19T02:15:32.584Z,95169.00
2023-05-19T02:16:32.544Z,95169.00
2023-05-19T02:17:32.509Z,95169.00
2023-05-19T02:18:32.515Z,95167.00
2023-05-19T02:19:32.513Z,95171.00
2023-05-19T02:20:32.622Z,95173.00
2023-05-19T02:21:32.486Z,95169.00
2023-05-19T02:22:32.480Z,95169.00
2023-05-19T02:23:32.483Z,95169.00
2023-05-19T02:24:32.439Z,95171.00
2023-05-19T02:25:32.454Z,95171.00
2023-05-19T02:26:32.520Z,95171.00
2023-05-19T02:27:32.455Z,95171.00
2023-05-19T02:28:32.483Z,95171.00
2023-05-19T02:29:32.427Z,95167.00
2023-05-19T02:30:32.640Z,95169.00
2023-05-19T02:31:32.559Z,95171.00
2023-05-19T02:32:32.462Z,95171.00
2023-05-19T02:33:32.427Z,95171.00
2023-05-19T02:34:32.408Z,95171.00
2023-05-19T02:35:32.393Z,95173.00
2023-05-19T02:36:32.412Z,95171.00
2023-05-19T02:37:32.416Z,95173.00
2023-05-19T02:38:32.402Z,95171.00
2023-05-19T02:39:32.438Z,95171.00
2023-05-19T02:40:32.500Z,95171.00
2023-05-19T02:41:32.428Z,95169.00
2023-05-19T02:42:32.361Z,95169.00
2023-05-19T02:43:32.369Z,95169.00
2023-05-19T02:44:32.355Z,95169.00
2023-05-19T02:45:32.325Z,95171.00
2023-05-19T02:46:32.514Z,95169.00
2023-05-19T02:47:33.206Z,95167.00
2023-05-19T02:48:32.349Z,95167.00
2023-05-19T02:49:32.353Z,95169.00
2023-05-19T02:50:32.545Z,95167.00
2023-05-19T02:51:32.407Z,95165.00
2023-05-19T02:52:32.370Z,95165.00
2023-05-19T02:53:32.402Z,95163.00
2023-05-19T02:54:32.446Z,95163.00
2023-05-19T02:55:32.461Z,95163.00
2023-05-19T02:56:32.505Z,95162.00
2023-05-19T02:57:32.454Z,95160.00
2023-05-19T02:58:32.466Z,95162.00
2023-05-19T02:59:32.474Z,95160.00
2023-05-19T03:00:32.741Z,95163.00
2023-05-19T03:01:32.576Z,95162.00
2023-05-19T03:02:32.650Z,95160.00
2023-05-19T03:03:32.593Z,95160.00
2023-05-19T03:04:32.540Z,95158.00
2023-05-19T03:05:32.566Z,95158.00
2023-05-19T03:06:32.525Z,95158.00
2023-05-19T03:07:32.574Z,95156.00
2023-05-19T03:08:32.584Z,95154.00
2023-05-19T03:09:32.617Z,95154.00
2023-05-19T03:10:32.785Z,95150.00
2023-05-19T03:11:32.602Z,95152.00
2023-05-19T03:12:32.634Z,95150.00
2023-05-19T03:13:32.641Z,95150.00
2023-05-19T03:14:32.660Z,95150.00
2023-05-19T03:15:32.659Z,95152.00
2023-05-19T03:16:32.680Z,95152.00
2023-05-19T03:17:32.728Z,95152.00
2023-05-19T03:18:32.702Z,95150.00
2023-05-19T03:19:32.652Z,95150.00
2023-05-19T03:20:32.781Z,95152.00
2023-05-19T03:21:32.684Z,95150.00
2023-05-19T03:22:32.708Z,95150.00
2023-05-19T03:23:32.751Z,95150.00
2023-05-19T03:24:32.722Z,95150.00
2023-05-19T03:25:32.736Z,95148.00
2023-05-19T03:26:32.739Z,95150.00
2023-05-19T03:27:32.757Z,95152.00
2023-05-19T03:28:32.768Z,95152.00
2023-05-19T03:29:32.780Z,95150.00
2023-05-19T03:30:33.018Z,95150.00
2023-05-19T03:31:32.848Z,95152.00
2023-05-19T03:32:32.999Z,95152.00
2023-05-19T03:33:32.906Z,95152.00
2023-05-19T03:34:32.847Z,95152.00
2023-05-19T03:35:32.838Z,95152.00
2023-05-19T03:36:32.903Z,95152.00
2023-05-19T03:37:32.861Z,95150.00
2023-05-19T03:38:32.872Z,95152.00
2023-05-19T03:39:32.860Z,95140.00
2023-05-19T03:40:33.272Z,95148.00
2023-05-19T03:41:32.951Z,95154.00
2023-05-19T03:42:32.949Z,95152.00
2023-05-19T03:43:32.925Z,95154.00
2023-05-19T03:44:32.993Z,95152.00
2023-05-19T03:45:33.028Z,95152.00
2023-05-19T03:46:32.991Z,95150.00
2023-05-19T03:47:33.094Z,95152.00
2023-05-19T03:48:33.009Z,95152.00
2023-05-19T03:49:33.002Z,95152.00
2023-05-19T03:50:33.185Z,95150.00
2023-05-19T03:51:33.070Z,95148.00
2023-05-19T03:52:33.073Z,95150.00
2023-05-19T03:53:33.081Z,95152.00
2023-05-19T03:54:33.088Z,95152.00
2023-05-19T03:55:33.123Z,95154.00
2023-05-19T03:56:33.154Z,95156.00
2023-05-19T03:57:33.132Z,95156.00
2023-05-19T03:58:33.152Z,95156.00
2023-05-19T03:59:33.173Z,95158.00
2023-05-19T04:00:33.557Z,95158.00
2023-05-19T04:01:33.182Z,95156.00
2023-05-19T04:02:33.234Z,95160.00
2023-05-19T04:03:33.283Z,95158.00
2023-05-19T04:04:33.500Z,95158.00
2023-05-19T04:05:33.272Z,95154.00
2023-05-19T04:06:33.273Z,95156.00
2023-05-19T04:07:33.283Z,95152.00
2023-05-19T04:08:33.326Z,95154.00
2023-05-19T04:09:33.296Z,95154.00
2023-05-19T04:10:33.433Z,95152.00
2023-05-19T04:11:33.319Z,95152.00
2023-05-19T04:12:33.346Z,95152.00
2023-05-19T04:13:33.333Z,95150.00
2023-05-19T04:14:33.349Z,95150.00
2023-05-19T04:15:33.456Z,95140.00
2023-05-19T04:16:33.407Z,95150.00
2023-05-19T04:17:33.433Z,95152.00
2023-05-19T04:18:33.430Z,95152.00
2023-05-19T04:19:33.544Z,95150.00
2023-05-19T04:20:33.646Z,95148.00
2023-05-19T04:21:33.469Z,95152.00
2023-05-19T04:22:33.481Z,95152.00
2023-05-19T04:23:33.537Z,95154.00
2023-05-19T04:24:33.541Z,95152.00
2023-05-19T04:25:33.570Z,95154.00
2023-05-19T04:26:33.555Z,95156.00
2023-05-19T04:27:33.557Z,95156.00
2023-05-19T04:28:33.625Z,95156.00
2023-05-19T04:29:33.609Z,95158.00
2023-05-19T04:30:33.843Z,95156.00
2023-05-19T04:31:33.670Z,95160.00
2023-05-19T04:32:33.677Z,95160.00
2023-05-19T04:33:33.658Z,95160.00
2023-05-19T04:34:33.727Z,95160.00
2023-05-19T04:35:33.716Z,95160.00
2023-05-19T04:36:33.731Z,95163.00
2023-05-19T04:37:33.742Z,95162.00
2023-05-19T04:38:33.736Z,95165.00
2023-05-19T04:39:33.766Z,95163.00
2023-05-19T04:40:34.023Z,95163.00
2023-05-19T04:41:33.787Z,95163.00
2023-05-19T04:42:33.821Z,95167.00
2023-05-19T04:43:33.825Z,95167.00
2023-05-19T04:44:33.837Z,95167.00
2023-05-19T04:45:33.820Z,95167.00
2023-05-19T04:46:33.939Z,95167.00
2023-05-19T04:47:33.854Z,95165.00
2023-05-19T04:48:33.869Z,95165.00
2023-05-19T04:49:33.861Z,95165.00
2023-05-19T04:50:34.305Z,95162.00
2023-05-19T04:51:33.853Z,95162.00
2023-05-19T04:52:33.915Z,95160.00
2023-05-19T04:53:33.855Z,95163.00
2023-05-19T04:54:33.865Z,95165.00
2023-05-19T04:55:33.853Z,95163.00
2023-05-19T04:56:33.867Z,95165.00
2023-05-19T04:57:33.845Z,95163.00
2023-05-19T04:58:33.868Z,95163.00
2023-05-19T04:59:33.836Z,95160.00
2023-05-19T05:00:33.978Z,95158.00
2023-05-19T05:01:33.932Z,95156.00
2023-05-19T05:02:33.893Z,95160.00
2023-05-19T05:03:33.956Z,95160.00
2023-05-19T05:04:33.862Z,95162.00
2023-05-19T05:05:33.837Z,95165.00
2023-05-19T05:06:33.839Z,95163.00
2023-05-19T05:07:33.846Z,95163.00
2023-05-19T05:08:33.829Z,95162.00
2023-05-19T05:09:33.851Z,95160.00
2023-05-19T05:10:34.084Z,95158.00
2023-05-19T05:11:33.840Z,95154.00
2023-05-19T05:12:33.811Z,95154.00
2023-05-19T05:13:33.804Z,95156.00
2023-05-19T05:14:33.830Z,95154.00
2023-05-19T05:15:33.794Z,95158.00
2023-05-19T05:16:33.859Z,95160.00
2023-05-19T05:17:34.338Z,95158.00
2023-05-19T05:18:33.812Z,95158.00
2023-05-19T05:19:33.917Z,95158.00
2023-05-19T05:20:33.942Z,95158.00
2023-05-19T05:21:33.795Z,95156.00
2023-05-19T05:22:33.785Z,95156.00
2023-05-19T05:23:33.791Z,95152.00
2023-05-19T05:24:33.797Z,95150.00
2023-05-19T05:25:33.996Z,95156.00
2023-05-19T05:26:33.811Z,95150.00
2023-05-19T05:27:33.814Z,95156.00
2023-05-19T05:28:33.822Z,95156.00
2023-05-19T05:29:33.928Z,95156.00
2023-05-19T05:30:33.800Z,95156.00
2023-05-19T05:31:33.824Z,95156.00
2023-05-19T05:32:33.871Z,95158.00
2023-05-19T05:33:33.843Z,95156.00
2023-05-19T05:34:33.808Z,95154.00
2023-05-19T05:35:34.029Z,95152.00
2023-05-19T05:36:33.793Z,95152.00
2023-05-19T05:37:33.908Z,95148.00
2023-05-19T05:38:33.787Z,95148.00
2023-05-19T05:39:33.955Z,95140.00
2023-05-19T05:40:33.803Z,95148.00
2023-05-19T05:41:33.831Z,95148.00
2023-05-19T05:42:33.821Z,95152.00
2023-05-19T05:43:33.820Z,95152.00
2023-05-19T05:44:33.833Z,95152.00
2023-05-19T05:45:34.029Z,95150.00
2023-05-19T05:46:33.874Z,95154.00
2023-05-19T05:47:33.884Z,95148.00
2023-05-19T05:48:33.879Z,95140.00
2023-05-19T05:49:33.916Z,95140.00
2023-05-19T05:50:33.986Z,95148.00
2023-05-19T05:51:33.934Z,95138.00
2023-05-19T05:52:33.946Z,95136.00
2023-05-19T05:53:34.033Z,95140.00
2023-05-19T05:54:34.006Z,95140.00
2023-05-19T05:55:34.185Z,95136.00
2023-05-19T05:56:34.009Z,95136.00
2023-05-19T05:57:34.020Z,95136.00
2023-05-19T05:58:35.206Z,95136.00
2023-05-19T05:59:34.099Z,95136.00
2023-05-19T06:00:34.381Z,95134.00
2023-05-19T06:01:35.588Z,95136.00
2023-05-19T06:02:34.190Z,95136.00
2023-05-19T06:03:34.214Z,95138.00
2023-05-19T06:04:34.187Z,95136.00
2023-05-19T06:05:34.223Z,95132.00
2023-05-19T06:06:34.249Z,95136.00
2023-05-19T06:07:34.296Z,95132.00
2023-05-19T06:08:34.311Z,95134.00
2023-05-19T06:09:34.368Z,95136.00
2023-05-19T06:10:34.671Z,95136.00
2023-05-19T06:11:34.436Z,95134.00
2023-05-19T06:12:34.435Z,95134.00
2023-05-19T06:13:34.480Z,95132.00
2023-05-19T06:14:34.584Z,95132.00
2023-05-19T06:15:34.660Z,95132.00
2023-05-19T06:16:34.727Z,95132.00
2023-05-19T06:17:34.861Z,95130.00
2023-05-19T06:18:34.768Z,95134.00
2023-05-19T06:19:34.876Z,95140.00
2023-05-19T06:20:35.129Z,95138.00
2023-05-19T06:21:34.956Z,95138.00
2023-05-19T06:22:35.017Z,95136.00
2023-05-19T06:23:35.079Z,95140.00
2023-05-19T06:24:35.715Z,95138.00
2023-05-19T06:25:35.193Z,95140.00
2023-05-19T06:26:35.212Z,95138.00
2023-05-19T06:27:35.261Z,95138.00
2023-05-19T06:28:35.291Z,95140.00
2023-05-19T06:29:35.304Z,95140.00
2023-05-19T06:30:35.463Z,95138.00
2023-05-19T06:31:35.479Z,95136.00
2023-05-19T06:32:35.541Z,95134.00
2023-05-19T06:33:35.550Z,95134.00
2023-05-19T06:34:35.574Z,95132.00
2023-05-19T06:35:35.681Z,95134.00
2023-05-19T06:36:35.727Z,95130.00
2023-05-19T06:37:35.731Z,95132.00
2023-05-19T06:38:35.939Z,95134.00
2023-05-19T06:39:35.908Z,95134.00
2023-05-19T06:40:35.896Z,95134.00
2023-05-19T06:41:36.012Z,95132.00
2023-05-19T06:42:36.039Z,95130.00
2023-05-19T06:43:36.028Z,95130.00
2023-05-19T06:44:36.081Z,95134.00
2023-05-19T06:45:36.298Z,95130.00
2023-05-19T06:46:36.260Z,95132.00
2023-05-19T06:47:36.291Z,95132.00
2023-05-19T06:48:36.268Z,95132.00
2023-05-19T06:49:36.291Z,95130.00
2023-05-19T06:50:36.336Z,95130.00
2023-05-19T06:51:36.381Z,95128.00
2023-05-19T06:52:36.388Z,95130.00
2023-05-19T06:53:36.461Z,95130.00
2023-05-19T06:54:36.474Z,95128.00
2023-05-19T06:55:43.964Z,95130.00
2023-05-19T06:56:37.461Z,95130.00
2023-05-19T06:57:36.434Z,95128.00
2023-05-19T06:58:36.433Z,95126.00
2023-05-19T06:59:36.446Z,95128.00
2023-05-19T07:00:36.560Z,95128.00
2023-05-19T07:01:36.463Z,95126.00
2023-05-19T07:02:36.521Z,95124.00
2023-05-19T07:03:36.510Z,95124.00
2023-05-19T07:04:36.404Z,95124.00
2023-05-19T07:05:36.381Z,95124.00
2023-05-19T07:06:36.382Z,95126.00
2023-05-19T07:07:36.372Z,95124.00
2023-05-19T07:08:36.343Z,95124.00
2023-05-19T07:09:36.355Z,95124.00
2023-05-19T07:10:36.546Z,95126.00
2023-05-19T07:11:36.371Z,95124.00
2023-05-19T07:12:36.318Z,95124.00
2023-05-19T07:13:36.317Z,95126.00
2023-05-19T07:14:36.334Z,95126.00
2023-05-19T07:15:36.289Z,95122.00
2023-05-19T07:16:36.392Z,95122.00
2023-05-19T07:17:36.312Z,95124.00
2023-05-19T07:18:36.382Z,95122.00
2023-05-19T07:19:36.409Z,95122.00
2023-05-19T07:20:36.452Z,95120.00
2023-05-19T07:21:36.442Z,95118.00
2023-05-19T07:22:36.502Z,95120.00
2023-05-19T07:23:36.496Z,95122.00
2023-05-19T07:24:36.515Z,95122.00
2023-05-19T07:25:36.541Z,95120.00
2023-05-19T07:26:36.590Z,95122.00
2023-05-19T07:27:36.633Z,95120.00
2023-05-19T07:28:37.377Z,95118.00
2023-05-19T07:29:36.647Z,95116.00
2023-05-19T07:30:36.702Z,95116.00
2023-05-19T07:31:36.898Z,95114.00
2023-05-19T07:32:36.767Z,95114.00
2023-05-19T07:33:36.720Z,95110.00
2023-05-19T07:34:36.813Z,95109.00
2023-05-19T07:35:36.797Z,95110.00
2023-05-19T07:36:36.798Z,95109.00
2023-05-19T07:37:36.782Z,95109.00
2023-05-19T07:38:36.880Z,95109.00
2023-05-19T07:39:36.877Z,95107.00
2023-05-19T07:40:36.886Z,95109.00
2023-05-19T07:41:36.837Z,95107.00
2023-05-19T07:42:37.148Z,95107.00
2023-05-19T07:43:36.892Z,95103.00
2023-05-19T07:44:36.898Z,95103.00
2023-05-19T07:45:37.033Z,95103.00
2023-05-19T07:46:37.019Z,95103.00
2023-05-19T07:47:36.942Z,95101.00
2023-05-19T07:48:36.941Z,95097.00
2023-05-19T07:49:36.923Z,95097.00
2023-05-19T07:50:37.002Z,95101.00
2023-05-19T07:51:37.046Z,95097.00
2023-05-19T07:52:36.924Z,95097.00
2023-05-19T07:53:36.941Z,95065.00
2023-05-19T07:54:36.938Z,95060.00
2023-05-19T07:55:36.931Z,95060.00
2023-05-19T07:56:36.986Z,95058.00
2023-05-19T07:57:36.985Z,95056.00
2023-05-19T07:58:37.009Z,95056.00
2023-05-19T07:59:37.066Z,95056.00
2023-05-19T08:00:37.122Z,95056.00
2023-05-19T08:01:37.152Z,95054.00
2023-05-19T08:02:37.318Z,95054.00
2023-05-19T08:03:37.503Z,95050.00
2023-05-19T08:04:37.402Z,95050.00
2023-05-19T08:05:37.385Z,95050.00
2023-05-19T08:06:37.456Z,95050.00
2023-05-19T08:07:37.650Z,95048.00
2023-05-19T08:08:37.580Z,95048.00
2023-05-19T08:09:37.645Z,95044.00
2023-05-19T08:10:37.733Z,95046.00
2023-05-19T08:11:37.757Z,95044.00
2023-05-19T08:12:37.826Z,95044.00
2023-05-19T08:13:37.879Z,95044.00
2023-05-19T08:14:37.924Z,95042.00
2023-05-19T08:15:38.012Z,95044.00
2023-05-19T08:16:38.003Z,95046.00
2023-05-19T08:17:38.153Z,95046.00
2023-05-19T08:18:38.172Z,95044.00
2023-05-19T08:19:38.186Z,95044.00
2023-05-19T08:20:38.213Z,95042.00
2023-05-19T08:21:38.281Z,95040.00
2023-05-19T08:22:38.320Z,95044.00
2023-05-19T08:23:38.417Z,95040.00
2023-05-19T08:24:38.481Z,95038.00
2023-05-19T08:25:38.514Z,95038.00
2023-05-19T08:26:38.550Z,95038.00
2023-05-19T08:27:38.670Z,95040.00
2023-05-19T08:28:38.697Z,95036.00
2023-05-19T08:29:38.741Z,95036.00
2023-05-19T08:30:38.850Z,95032.00
2023-05-19T08:31:38.927Z,95032.00
2023-05-19T08:32:38.925Z,95032.00
2023-05-19T08:33:39.020Z,95030.00
2023-05-19T08:34:38.942Z,95030.00
2023-05-19T08:35:38.964Z,95030.00
2023-05-19T08:36:39.011Z,95026.00
2023-05-19T08:37:39.088Z,95024.00
2023-05-19T08:38:39.084Z,95026.00
2023-05-19T08:39:39.084Z,95022.00
2023-05-19T08:40:39.138Z,95024.00
2023-05-19T08:41:39.170Z,95022.00
2023-05-19T08:42:39.189Z,95022.00
2023-05-19T08:43:39.248Z,95022.00
2023-05-19T08:44:39.268Z,95018.00
2023-05-19T08:45:39.275Z,95022.00
2023-05-19T08:46:39.318Z,95020.00
2023-05-19T08:47:39.352Z,95018.00
2023-05-19T08:48:39.356Z,95015.00
2023-05-19T08:49:39.393Z,95011.00
2023-05-19T08:50:39.419Z,95009.00
2023-05-19T08:51:39.471Z,95007.00
2023-05-19T08:52:39.521Z,95007.00
2023-05-19T08:53:39.478Z,95007.00
2023-05-19T08:54:39.517Z,95007.00
2023-05-19T08:55:39.603Z,95005.00
2023-05-19T08:56:39.598Z,95005.00
2023-05-19T08:57:39.689Z,95003.00
2023-05-19T08:58:39.666Z,95003.00
2023-05-19T08:59:39.697Z,95001.00
2023-05-19T09:00:39.736Z,95003.00
2023-05-19T09:01:39.764Z,95003.00
2023-05-19T09:02:50.398Z,95003.00
2023-05-19T09:03:41.027Z,95003.00
2023-05-19T09:04:39.835Z,95001.00
2023-05-19T09:05:39.801Z,95001.00
2023-05-19T09:06:39.787Z,94999.00
2023-05-19T09:07:39.792Z,94999.00
2023-05-19T09:08:39.796Z,94997.00
2023-05-19T09:09:39.741Z,94999.00
2023-05-19T09:10:39.733Z,94997.00
2023-05-19T09:11:39.762Z,94995.00
2023-05-19T09:12:39.722Z,94993.00
2023-05-19T09:13:39.730Z,94999.00
2023-05-19T09:14:39.734Z,94995.00
2023-05-19T09:15:39.779Z,94995.00
2023-05-19T09:16:39.691Z,94993.00
2023-05-19T09:17:39.709Z,94987.00
2023-05-19T09:18:39.788Z,94985.00
2023-05-19T09:19:39.769Z,94985.00
2023-05-19T09:20:39.777Z,94983.00
2023-05-19T09:21:39.812Z,94983.00
2023-05-19T09:22:39.842Z,94983.00
2023-05-19T09:23:39.834Z,94981.00
2023-05-19T09:24:39.865Z,94979.00
2023-05-19T09:25:39.914Z,94981.00
2023-05-19T09:26:39.937Z,94977.00
2023-05-19T09:27:39.963Z,94977.00
2023-05-19T09:28:39.993Z,94973.00
2023-05-19T09:29:40.031Z,94971.00
2023-05-19T09:30:40.061Z,94969.00
2023-05-19T09:31:40.233Z,94969.00
2023-05-19T09:32:40.192Z,94969.00
2023-05-19T09:33:40.703Z,94965.00
2023-05-19T09:34:40.274Z,94965.00
2023-05-19T09:35:40.219Z,94963.00
2023-05-19T09:36:40.308Z,94963.00
2023-05-19T09:37:40.294Z,94963.00
2023-05-19T09:38:40.328Z,94961.00
2023-05-19T09:39:40.347Z,94960.00
2023-05-19T09:40:40.346Z,94958.00
2023-05-19T09:41:40.364Z,94960.00
2023-05-19T09:42:40.384Z,94958.00
2023-05-19T09:43:40.372Z,94956.00
2023-05-19T09:44:40.448Z,94956.00
2023-05-19T09:45:40.514Z,94954.00
2023-05-19T09:46:40.460Z,94958.00
2023-05-19T09:47:40.509Z,94952.00
2023-05-19T09:48:40.478Z,94948.00
2023-05-19T09:49:40.526Z,94948.00
2023-05-19T09:50:41.410Z,94946.00
2023-05-19T09:51:40.562Z,94942.00
2023-05-19T09:52:40.617Z,94942.00
2023-05-19T09:53:40.638Z,94944.00
2023-05-19T09:54:40.625Z,94942.00
2023-05-19T09:55:40.658Z,94942.00
2023-05-19T09:56:40.657Z,94938.00
2023-05-19T09:57:40.676Z,94936.00
2023-05-19T09:58:40.683Z,94932.00
2023-05-19T09:59:40.670Z,94934.00
2023-05-19T10:00:40.964Z,94930.00
2023-05-19T10:01:40.828Z,94930.00
2023-05-19T10:02:40.723Z,94924.00
2023-05-19T10:03:40.833Z,94924.00
2023-05-19T10:04:40.735Z,94920.00
2023-05-19T10:05:40.794Z,94918.00
2023-05-19T10:06:40.743Z,94918.00
2023-05-19T10:07:40.732Z,94918.00
2023-05-19T10:08:40.751Z,94918.00
2023-05-19T10:09:40.791Z,94916.00
2023-05-19T10:10:40.830Z,94914.00
2023-05-19T10:11:40.778Z,94907.00
2023-05-19T10:12:40.776Z,94907.00
2023-05-19T10:13:40.852Z,94905.00
2023-05-19T10:14:40.829Z,94905.00
2023-05-19T10:15:50.041Z,94903.00
2023-05-19T10:16:41.837Z,94903.00
2023-05-19T10:17:40.864Z,94899.00
2023-05-19T10:18:40.820Z,94901.00
2023-05-19T10:19:40.786Z,94897.00
2023-05-19T10:20:40.797Z,94899.00
2023-05-19T10:21:40.732Z,94897.00
2023-05-19T10:22:40.740Z,94895.00
2023-05-19T10:23:40.781Z,94891.00
2023-05-19T10:24:40.743Z,94893.00
2023-05-19T10:25:40.756Z,94883.00
2023-05-19T10:26:40.727Z,94883.00
2023-05-19T10:27:40.703Z,94883.00
2023-05-19T10:28:40.733Z,94883.00
2023-05-19T10:29:40.683Z,94881.00
2023-05-19T10:30:40.708Z,94881.00
2023-05-19T10:31:40.721Z,94881.00
2023-05-19T10:32:40.754Z,94879.00
2023-05-19T10:33:40.724Z,94879.00
2023-05-19T10:34:40.726Z,94879.00
2023-05-19T10:35:40.692Z,94875.00
2023-05-19T10:36:40.666Z,94873.00
2023-05-19T10:37:40.628Z,94869.00
2023-05-19T10:38:40.644Z,94868.00
2023-05-19T10:39:40.649Z,94864.00
2023-05-19T10:40:40.641Z,94862.00
2023-05-19T10:41:40.654Z,94858.00
2023-05-19T10:42:40.688Z,94858.00
2023-05-19T10:43:40.753Z,94860.00
2023-05-19T10:44:40.760Z,94860.00
2023-05-19T10:45:40.828Z,94858.00
2023-05-19T10:46:40.814Z,94860.00
2023-05-19T10:47:40.815Z,94858.00
2023-05-19T10:48:40.760Z,94858.00
2023-05-19T10:49:40.757Z,94856.00
2023-05-19T10:50:40.832Z,94858.00
2023-05-19T10:51:40.841Z,94854.00
2023-05-19T10:52:40.780Z,94852.00
2023-05-19T10:53:40.816Z,94854.00
2023-05-19T10:54:40.819Z,94850.00
2023-05-19T10:55:40.934Z,94891.00
2023-05-19T10:56:40.816Z,94883.00
2023-05-19T10:57:40.767Z,94883.00
2023-05-19T10:58:40.925Z,94881.00
2023-05-19T10:59:40.791Z,94881.00
2023-05-19T11:00:40.840Z,94879.00
2023-05-19T11:01:40.868Z,94879.00
2023-05-19T11:02:40.860Z,94877.00
2023-05-19T11:03:43.039Z,94875.00
2023-05-19T11:04:40.818Z,94873.00
2023-05-19T11:05:40.821Z,94869.00
2023-05-19T11:06:40.821Z,94873.00
2023-05-19T11:07:40.839Z,94871.00
2023-05-19T11:08:40.818Z,94869.00
2023-05-19T11:09:41.107Z,94871.00
2023-05-19T11:10:40.862Z,94873.00
2023-05-19T11:11:40.836Z,94871.00
2023-05-19T11:12:40.847Z,94868.00
2023-05-19T11:13:40.852Z,94873.00
2023-05-19T11:14:40.827Z,94873.00
2023-05-19T11:15:40.873Z,94875.00
2023-05-19T11:16:40.920Z,94871.00
2023-05-19T11:17:40.843Z,94871.00
2023-05-19T11:18:40.885Z,94869.00
2023-05-19T11:19:40.818Z,94868.00
2023-05-19T11:20:41.013Z,94866.00
2023-05-19T11:21:40.849Z,94864.00
2023-05-19T11:22:40.847Z,94862.00
2023-05-19T11:23:40.926Z,94858.00
2023-05-19T11:24:40.825Z,94860.00
2023-05-19T11:25:40.821Z,94856.00
2023-05-19T11:26:40.783Z,94856.00
2023-05-19T11:27:40.820Z,94858.00
2023-05-19T11:28:40.797Z,94854.00
2023-05-19T11:29:40.822Z,94856.00
2023-05-19T11:30:40.818Z,94854.00
2023-05-19T11:31:40.843Z,94852.00
2023-05-19T11:32:40.881Z,94850.00
2023-05-19T11:33:40.822Z,94848.00
2023-05-19T11:34:40.810Z,94844.00
2023-05-19T11:35:40.908Z,94844.00
2023-05-19T11:36:40.860Z,94844.00
2023-05-19T11:37:40.849Z,94838.00
2023-05-19T11:38:40.848Z,94838.00
2023-05-19T11:39:40.866Z,94840.00
2023-05-19T11:40:40.876Z,94836.00
2023-05-19T11:41:40.876Z,94838.00
2023-05-19T11:42:41.026Z,94832.00
2023-05-19T11:43:40.956Z,94824.00
2023-05-19T11:44:40.958Z,94826.00